M I D A S
Marine Information and Data Acquisition System
Tripno 709 of the Zeeleeuw from 2004-05-06 07:29:35 to 2004-05-06 13:38:23
Back to CruiseResearch ActivitiesStationsMapUnderway DataData graphs

EquipmentUnitsComment
TimeDGPSUTC
LatitudeDGPSDM.mWGS84
LongitudeDGPSDM.mWGS84
TemperatureSBE03/SBE38deg celciusITS90
ConductivitySBE21S/mITS90
SalinitySBE21 Practical Salinity Units
ChlorophylAChelsea fluorimeterg/lCalibrated in Aceton
Missing or incorrect values are displayed as -999
Sea surface data collected by the RV Zeeleeuw from 2004-05-06 07:29:35 to 2004-05-06 13:38:23
Time Latitude Longitude Temperature Conductivity Salinity ChlorophylA
2004-05-06 07:30:40 51°13.574 2°56.146 18.21242 4.386527 33.668881 18.3994
2004-05-06 07:31:40 51°13.545 2°56.226 18.169856 4.386527 33.668881 20.961315
2004-05-06 07:32:40 51°13.525 2°56.248 18.217236 4.386316 33.671318 18.43311
2004-05-06 07:33:41 51°13.524 2°56.241 18.251307 4.386211 33.669198 18.197144
2004-05-06 07:34:40 51°13.532 2°56.247 13.25974 3.57671 27.875559 68.188187
2004-05-06 07:35:40 51°13.538 2°56.178 13.003937 3.170473 25.993951 68.087059
2004-05-06 07:36:40 51°13.548 2°56.148 13.049139 3.082138 25.280696 68.01964
2004-05-06 07:37:40 51°13.559 2°56.124 13.018634 3.076032 25.271069 68.053349
2004-05-06 07:38:40 51°13.568 2°56.097 12.964533 3.153102 26.017692 68.01964
2004-05-06 07:39:40 51°13.587 2°56.043 12.875375 3.189536 26.391492 68.01964
2004-05-06 07:40:40 51°13.638 2°55.925 12.915729 3.231026 26.805201 68.053349
2004-05-06 07:41:40 51°13.707 2°55.786 13.081644 2.996342 24.58826 67.98593
2004-05-06 07:42:40 51°13.802 2°55.666 13.031358 2.777649 22.592492 68.053349
2004-05-06 07:43:40 51°13.921 2°55.576 12.976953 2.752292 22.34848 67.98593
2004-05-06 07:44:40 51°14.052 2°55.482 12.760555 3.209544 26.633292 68.01964
2004-05-06 07:45:40 51°14.195 2°55.366 12.78875 3.227131 26.832043 67.98593
2004-05-06 07:46:40 51°14.323 2°55.165 12.807181 3.235345 26.905915 68.053349
2004-05-06 07:47:40 51°14.418 2°54.899 12.642247 3.28084 27.337048 67.98593
2004-05-06 07:48:40 51°14.432 2°54.566 12.517815 3.572427 30.23178 68.053349
2004-05-06 07:49:40 51°14.386 2°54.216 12.379309 3.759581 32.079004 67.98593
2004-05-06 07:50:40 51°14.264 2°53.9 12.305487 3.844533 32.988603 68.01964
2004-05-06 07:51:40 51°14.174 2°53.557 12.303267 3.869304 33.25188 67.98593
2004-05-06 07:52:40 51°14.052 2°53.23 12.304762 3.884905 33.41669 67.98593
2004-05-06 07:53:39 51°13.926 2°52.905 12.300912 3.886275 33.412377 68.01964
2004-05-06 07:54:40 51°13.806 2°52.556 12.280483 3.893127 33.494836 68.053349
2004-05-06 07:55:40 51°13.681 2°52.215 12.280574 3.894392 33.518174 68.01964
2004-05-06 07:56:40 51°13.545 2°51.884 12.254156 3.898082 33.558486 68.053349
2004-05-06 07:57:40 51°13.406 2°51.556 12.265169 3.901982 33.609976 68.087059
2004-05-06 07:58:40 51°13.267 2°51.228 12.246769 3.894498 33.527595 68.01964
2004-05-06 07:59:40 51°13.124 2°50.903 12.239063 3.902826 33.62159 68.01964
2004-05-06 08:00:40 51°12.983 2°50.574 12.227366 3.908834 33.70187 68.053349
2004-05-06 08:01:40 51°12.845 2°50.246 12.206415 3.916846 33.785976 68.053349
2004-05-06 08:02:40 51°12.721 2°49.905 12.164086 3.920641 33.842328 68.053349
2004-05-06 08:03:40 51°12.594 2°49.566 12.13063 3.912841 33.809052 68.053349
2004-05-06 08:04:39 51°12.469 2°49.23 12.096021 3.92391 33.957061 68.120768
2004-05-06 08:05:40 51°12.345 2°48.878 12.063848 3.921275 33.961604 68.154477
2004-05-06 08:06:40 51°12.225 2°48.53 12.037754 3.925914 34.030753 63.064358
2004-05-06 08:07:40 51°12.117 2°48.172 12.017289 3.926547 34.051925 51.164939
2004-05-06 08:08:40 51°12.023 2°47.843 12.010784 3.924228 34.049577 45.366922
2004-05-06 08:09:40 51°12.058 2°47.669 12.008373 3.927074 34.082871 41.254375
2004-05-06 08:10:40 51°12.111 2°47.654 11.98799 3.925914 34.075957 30.770751
2004-05-06 08:11:39 51°12.125 2°47.663 11.988264 3.927074 34.095092 29.995435
2004-05-06 08:12:40 51°12.122 2°47.656 11.992541 3.925598 34.082238 37.00699
2004-05-06 08:13:40 51°12.114 2°47.646 12.00619 3.925809 34.079248 38.389076
2004-05-06 08:14:39 51°12.103 2°47.633 12.007282 3.924439 34.057361 36.501349
2004-05-06 08:15:40 51°12.09 2°47.617 12.010466 3.924333 34.057059 40.37793
2004-05-06 08:16:40 51°12.064 2°47.614 12.01879 3.925387 34.058646 39.535195
2004-05-06 08:17:40 51°11.966 2°47.604 12.014469 3.925282 34.055472 36.602477
2004-05-06 08:18:40 51°11.843 2°47.488 11.99295 3.927496 34.087672 31.714614
2004-05-06 08:19:40 51°11.713 2°47.357 11.978343 3.926653 34.09892 44.288221
2004-05-06 08:20:40 51°11.598 2°47.292 11.948071 3.925072 34.104472 55.951674
2004-05-06 08:21:40 51°11.556 2°47.339 11.971106 3.919274 34.05404 49.98511
2004-05-06 08:22:41 51°11.55 2°47.316 11.971061 3.921487 34.059672 44.9287
2004-05-06 08:23:40 51°11.543 2°47.298 11.960682 3.919274 34.043976 56.322477
2004-05-06 08:24:40 51°11.536 2°47.283 11.957996 3.91959 34.05351 64.446443
2004-05-06 08:25:40 51°11.53 2°47.271 11.956266 3.918747 34.048214 68.053349
2004-05-06 08:26:40 51°11.526 2°47.27 11.962549 3.918325 34.04269 68.457862
2004-05-06 08:27:40 51°11.526 2°47.276 11.972927 3.919695 34.045905 62.996939
2004-05-06 08:28:40 51°11.535 2°47.285 11.983485 3.920012 34.040347 63.266614
2004-05-06 08:29:40 51°11.573 2°47.332 11.986307 3.920222 34.038798 60.805828
2004-05-06 08:30:40 51°11.638 2°47.406 11.987626 3.920855 34.044923 56.356187
2004-05-06 08:31:39 51°11.686 2°47.481 11.985169 3.920644 34.03929 52.041383
2004-05-06 08:32:40 51°11.723 2°47.555 11.975658 3.919695 34.035848 55.681999
2004-05-06 08:33:40 51°11.753 2°47.61 11.977251 3.919063 34.035468 61.985657
2004-05-06 08:34:39 51°11.773 2°47.661 11.981392 3.920855 34.047796 56.895537
2004-05-06 08:35:40 51°11.79 2°47.715 11.98567 3.921487 34.051048 63.536289
2004-05-06 08:36:40 51°11.816 2°47.763 12.010056 3.922752 34.052523 63.704836
2004-05-06 08:37:40 51°11.851 2°47.813 12.023793 3.924228 34.045271 48.434477
2004-05-06 08:38:40 51°11.881 2°47.874 12.020473 3.925703 34.056681 50.693007
2004-05-06 08:39:40 51°11.902 2°47.943 12.015378 3.925809 34.061291 59.963093
2004-05-06 08:40:40 51°11.925 2°48.009 12.024657 3.927496 34.081924 67.412871
2004-05-06 08:41:40 51°11.954 2°48.067 12.043664 3.928022 34.069789 58.176494
2004-05-06 08:42:40 51°11.98 2°48.129 12.043073 3.928022 34.058309 53.490888
2004-05-06 08:43:40 51°11.998 2°48.198 12.0403 3.92739 34.054344 65.963366
2004-05-06 08:44:40 51°12.022 2°48.259 12.052439 3.926547 34.051208 68.154477
2004-05-06 08:45:40 51°12.048 2°48.32 12.063712 3.927179 34.035818 65.019503
2004-05-06 08:46:40 51°12.07 2°48.384 12.05453 3.926019 34.027474 68.120768
2004-05-06 08:47:40 51°12.101 2°48.436 12.082209 3.925808 34.017559 68.154477
2004-05-06 08:48:40 51°12.128 2°48.494 12.096611 3.92644 34.00149 64.952084
2004-05-06 08:49:40 51°12.15 2°48.559 12.105515 3.925386 33.982733 68.120768
2004-05-06 08:50:40 51°12.17 2°48.625 12.113782 3.926229 33.982303 68.120768
2004-05-06 08:51:40 51°12.19 2°48.693 12.120912 3.925702 33.969361 68.053349
2004-05-06 08:52:40 51°12.212 2°48.76 12.132083 3.926124 33.968434 68.087059
2004-05-06 08:53:40 51°12.236 2°48.824 12.148744 3.924753 33.943088 68.120768
2004-05-06 08:54:40 51°12.261 2°48.887 12.158231 3.924964 33.930872 68.087059
2004-05-06 08:55:39 51°12.287 2°48.95 12.173116 3.92412 33.915622 68.053349
2004-05-06 08:56:40 51°12.312 2°49.014 12.187001 3.923804 33.899769 68.01964
2004-05-06 08:57:40 51°12.337 2°49.077 12.204193 3.924015 33.887585 68.01964
2004-05-06 08:58:40 51°12.36 2°49.14 12.221108 3.922644 33.860899 67.98593
2004-05-06 08:59:40 51°12.378 2°49.202 12.24074 3.922117 33.840225 68.01964
2004-05-06 09:00:40 51°12.39 2°49.26 12.250304 3.921906 33.821904 68.01964
2004-05-06 09:01:40 51°12.394 2°49.3 12.248808 3.920851 33.80752 67.98593
2004-05-06 09:02:40 51°12.392 2°49.331 12.257012 3.91927 33.793023 68.01964
2004-05-06 09:03:40 51°12.385 2°49.351 12.266574 3.919797 33.78607 68.053349
2004-05-06 09:04:40 51°12.374 2°49.365 12.276768 3.920113 33.782042 67.98593
2004-05-06 09:05:40 51°12.361 2°49.373 12.279487 3.921167 33.782987 68.053349
2004-05-06 09:06:40 51°12.351 2°49.392 12.279894 3.921167 33.782987 67.98593
2004-05-06 09:07:40 51°12.373 2°49.444 12.2726 3.9218 33.795424 67.98593
2004-05-06 09:08:40 51°12.409 2°49.521 12.272283 3.921378 33.787839 68.01964
2004-05-06 09:09:39 51°12.449 2°49.606 12.27482 3.919586 33.772739 67.98593
2004-05-06 09:10:40 51°12.5 2°49.689 12.284198 3.917478 33.74613 68.053349
2004-05-06 09:11:40 51°12.549 2°49.774 12.288864 3.914104 33.706682 67.952221
2004-05-06 09:12:40 51°12.599 2°49.856 12.302135 3.911891 33.679794 68.01964
2004-05-06 09:13:40 51°12.647 2°49.936 12.314226 3.907252 33.624028 67.98593
2004-05-06 09:14:40 51°12.696 2°50.017 12.32378 3.908095 33.619478 68.053349
2004-05-06 09:15:39 51°12.743 2°50.099 12.325681 3.907041 33.606561 68.01964
2004-05-06 09:16:40 51°12.786 2°50.188 12.328624 3.90799 33.614256 68.01964
2004-05-06 09:17:40 51°12.83 2°50.275 12.338764 3.907147 33.601959 68.053349
2004-05-06 09:18:40 51°12.874 2°50.365 12.336682 3.907673 33.59439 68.087059
2004-05-06 09:19:40 51°12.916 2°50.456 12.319026 3.90936 33.622485 68.120768
2004-05-06 09:20:40 51°12.958 2°50.547 12.305985 3.91189 33.664316 68.087059
2004-05-06 09:21:39 51°13.001 2°50.635 12.32206 3.913472 33.678786 68.120768
2004-05-06 09:22:40 51°13.045 2°50.728 12.309698 3.913998 33.671184 68.154477
2004-05-06 09:23:40 51°13.089 2°50.821 12.299373 3.916634 33.714768 68.424153
2004-05-06 09:24:40 51°13.135 2°50.911 12.295704 3.917688 33.722773 60.064221
2004-05-06 09:25:40 51°13.179 2°51 12.287822 3.920956 33.768958 55.07523
2004-05-06 09:26:40 51°13.223 2°51.091 12.275681 3.923065 33.796271 51.400905
2004-05-06 09:27:40 51°13.265 2°51.183 12.269836 3.924014 33.81387 48.198512
2004-05-06 09:28:40 51°13.304 2°51.28 12.264444 3.9257 33.838571 47.962546
2004-05-06 09:29:40 51°13.344 2°51.375 12.39419 3.918742 33.70684 48.198512
2004-05-06 09:30:40 51°13.385 2°51.47 12.40545 3.918109 33.653015 46.917554
2004-05-06 09:31:40 51°13.425 2°51.565 12.354152 3.921377 33.692038 48.333349
2004-05-06 09:32:40 51°13.465 2°51.66 12.366415 3.925383 33.762796 49.41205
2004-05-06 09:33:40 51°13.503 2°51.756 12.388672 3.917792 33.639472 49.850272
2004-05-06 09:34:40 51°13.543 2°51.851 12.385144 3.924539 33.723042 47.793999
2004-05-06 09:35:40 51°13.582 2°51.947 12.461453 3.922114 33.671737 47.558033
2004-05-06 09:36:40 51°13.621 2°52.043 12.437277 3.91853 33.602444 51.400905
2004-05-06 09:37:40 51°13.66 2°52.14 12.444644 3.923484 33.661726 52.614443
2004-05-06 09:38:40 51°13.7 2°52.237 12.468275 3.924222 33.65548 55.681999
2004-05-06 09:39:40 51°13.74 2°52.335 12.515874 3.920638 33.587677 60.09793
2004-05-06 09:40:40 51°13.78 2°52.433 12.512217 3.914945 33.515205 66.199332
2004-05-06 09:41:40 51°13.819 2°52.532 12.494156 3.915999 33.525963 67.581418
2004-05-06 09:42:40 51°13.86 2°52.632 12.472476 3.922746 33.619691 63.334033
2004-05-06 09:43:39 51°13.897 2°52.731 12.461272 3.923062 33.629703 62.35646
2004-05-06 09:44:40 51°13.95 2°52.856 12.480968 3.924222 33.644284 60.401315
2004-05-06 09:45:40 51°14.057 2°53.108 12.494833 3.921586 33.607911 62.626136
2004-05-06 09:46:40 51°14.163 2°53.39 12.428101 3.91621 33.548872 68.154477
2004-05-06 09:47:40 51°14.239 2°53.698 12.388039 3.911784 33.581251 68.120768
2004-05-06 09:48:40 51°14.303 2°54.014 12.348495 3.905038 33.553729 68.120768
2004-05-06 09:49:40 51°14.379 2°54.323 12.31323 3.891335 33.458776 68.053349
2004-05-06 09:50:40 51°14.434 2°54.647 12.362297 3.881953 33.346595 68.053349
2004-05-06 09:51:40 51°14.392 2°54.976 12.458968 3.877841 33.228917 68.053349
2004-05-06 09:52:40 51°14.288 2°55.238 12.493704 3.832411 32.813224 68.01964
2004-05-06 09:53:40 51°14.187 2°55.397 12.61426 3.574534 30.225932 68.01964
2004-05-06 09:54:40 51°14.092 2°55.484 12.648194 3.487823 29.379975 68.053349
2004-05-06 09:55:40 51°13.992 2°55.548 12.682967 3.454217 29.066828 68.053349
2004-05-06 09:56:41 51°13.889 2°55.608 12.710925 3.396068 28.475082 68.01964
2004-05-06 09:57:40 51°13.787 2°55.664 12.647653 3.362467 28.167813 68.01964
2004-05-06 09:58:40 51°13.714 2°55.77 13.063648 3.214073 26.733966 67.98593
2004-05-06 09:59:40 51°13.66 2°55.891 12.986995 2.943923 24.082599 68.087059
2004-05-06 10:00:40 51°13.624 2°55.996 12.942064 3.063084 25.226029 68.120768
2004-05-06 10:01:40 51°13.6 2°56.08 12.838726 3.190063 26.459543 68.087059
2004-05-06 10:02:39 51°13.596 2°56.097 12.83639 3.11183 25.722038 68.154477
2004-05-06 10:03:40 51°13.596 2°56.098 12.808799 3.252511 27.084942 68.053349
2004-05-06 10:04:40 51°13.596 2°56.097 12.828033 3.211124 26.677283 68.120768
2004-05-06 10:05:40 51°13.596 2°56.097 12.825831 3.222497 26.779564 68.154477
2004-05-06 10:06:41 51°13.596 2°56.098 12.806596 3.226709 26.82707 68.087059
2004-05-06 10:07:40 51°13.595 2°56.098 12.803405 3.234818 26.907144 68.120768
2004-05-06 10:08:39 51°13.595 2°56.097 12.785063 3.243559 26.991986 68.154477
2004-05-06 10:09:40 51°13.595 2°56.097 12.734957 3.289055 27.440955 68.087059
2004-05-06 10:10:39 51°13.596 2°56.097 12.705793 3.324233 27.792797 68.120768
2004-05-06 10:11:40 51°13.596 2°56.096 12.669321 3.39333 28.473098 68.120768
2004-05-06 10:12:40 51°13.597 2°56.097 12.649636 3.386167 28.407108 68.087059
2004-05-06 10:13:40 51°13.596 2°56.096 12.647293 3.393225 28.485037 68.087059
2004-05-06 10:14:41 51°13.595 2°56.095 12.647293 3.40123 28.563628 68.087059
2004-05-06 10:15:39 51°13.596 2°56.096 12.644274 3.391539 28.473474 68.01964
2004-05-06 10:16:40 51°13.596 2°56.095 12.642517 3.389854 28.457799 68.053349
2004-05-06 10:17:40 51°13.596 2°56.094 12.652159 3.38543 28.4149 68.053349
2004-05-06 10:18:41 51°13.596 2°56.094 12.661394 3.379636 28.354023 68.053349
2004-05-06 10:19:40 51°13.596 2°56.094 12.660087 3.373316 28.292381 68.01964
2004-05-06 10:20:40 51°13.595 2°56.093 12.658421 3.374686 28.305102 68.01964
2004-05-06 10:21:40 51°13.595 2°56.094 12.659727 3.374791 28.305497 68.01964
2004-05-06 10:22:40 51°13.595 2°56.094 12.655087 3.377846 28.333877 68.053349
2004-05-06 10:23:40 51°13.596 2°56.094 12.653195 3.38069 28.363227 68.01964
2004-05-06 10:24:40 51°13.598 2°56.097 12.646212 3.391645 28.468582 68.053349
2004-05-06 10:25:40 51°13.599 2°56.099 12.603125 3.434413 28.891085 68.01964
2004-05-06 10:26:40 51°13.597 2°56.096 12.59068 3.460012 29.146159 68.053349
2004-05-06 10:27:40 51°13.596 2°56.096 12.575211 3.473812 29.285381 68.053349
2004-05-06 10:28:41 51°13.596 2°56.096 12.572234 3.488667 29.43099 68.087059
2004-05-06 10:29:39 51°13.595 2°56.097 12.584186 3.496252 29.505639 68.053349
2004-05-06 10:30:40 51°13.596 2°56.098 12.595009 3.480976 29.354185 68.120768
2004-05-06 10:31:40 51°13.597 2°56.097 12.61737 3.424405 28.797792 68.087059
2004-05-06 10:32:41 51°13.597 2°56.097 12.616513 3.432727 28.873581 68.087059
2004-05-06 10:33:40 51°13.598 2°56.098 12.61169 3.441365 28.957119 68.087059
2004-05-06 10:34:42 51°13.598 2°56.097 12.607543 3.443894 28.983695 68.120768
2004-05-06 10:35:41 51°13.598 2°56.098 12.600194 3.451689 29.061838 68.120768
2004-05-06 10:36:41 51°13.598 2°56.097 12.597895 3.456957 29.114017 68.120768
2004-05-06 10:37:40 51°13.597 2°56.097 12.58581 3.463277 29.178472 68.120768
2004-05-06 10:38:41 51°13.597 2°56.096 12.540698 3.491722 29.461407 68.087059
2004-05-06 10:39:40 51°13.597 2°56.097 12.521742 3.532074 29.871505 68.053349
2004-05-06 10:40:42 51°13.596 2°56.098 12.517183 3.542715 29.980092 68.120768
2004-05-06 10:41:42 51°13.596 2°56.097 12.531943 3.535761 29.911692 68.120768
2004-05-06 10:42:42 51°13.596 2°56.098 12.544037 3.518272 29.742624 68.087059
2004-05-06 10:43:41 51°13.596 2°56.098 12.557258 3.492776 29.488343 68.087059
2004-05-06 10:44:42 51°13.595 2°56.099 12.558431 3.486139 29.417674 68.120768
2004-05-06 10:45:41 51°13.596 2°56.1 12.565604 3.485507 29.412367 68.120768
2004-05-06 10:46:42 51°13.596 2°56.1 12.565739 3.482662 29.380276 68.120768
2004-05-06 10:47:41 51°13.595 2°56.098 12.564476 3.485507 29.409325 68.087059
2004-05-06 10:48:42 51°13.595 2°56.097 12.56001 3.485612 29.409702 68.154477
2004-05-06 10:49:41 51°13.595 2°56.099 12.564476 3.487824 29.431625 68.087059
2004-05-06 10:50:42 51°13.595 2°56.1 12.562265 3.485401 29.409555 68.087059
2004-05-06 10:51:41 51°13.595 2°56.099 12.563935 3.486771 29.422982 68.120768
2004-05-06 10:52:40 51°13.594 2°56.097 12.562626 3.487087 29.422897 68.087059
2004-05-06 10:53:42 51°13.596 2°56.098 12.56222 3.489615 29.448388 68.120768
2004-05-06 10:54:40 51°13.596 2°56.097 12.561679 3.491617 29.466515 68.154477
2004-05-06 10:55:40 51°13.596 2°56.097 12.582337 3.475709 29.309775 68.154477
2004-05-06 10:56:40 51°13.596 2°56.097 12.580624 3.470547 29.256061 68.120768
2004-05-06 10:57:41 51°13.596 2°56.097 12.572731 3.477394 29.320689 68.120768
2004-05-06 10:58:41 51°13.596 2°56.097 12.575978 3.481398 29.360554 68.120768
2004-05-06 10:59:41 51°13.597 2°56.098 12.565333 3.485612 29.407878 68.154477
2004-05-06 11:00:42 51°13.598 2°56.099 12.563348 3.488562 29.438527 68.087059
2004-05-06 11:01:42 51°13.597 2°56.097 12.564295 3.490458 29.455667 68.087059
2004-05-06 11:02:40 51°13.597 2°56.097 12.563077 3.492038 29.471679 68.154477
2004-05-06 11:03:40 51°13.597 2°56.097 12.557844 3.494145 29.490794 68.087059
2004-05-06 11:04:42 51°13.597 2°56.098 12.549407 3.500888 29.561266 68.087059
2004-05-06 11:05:41 51°13.598 2°56.098 12.540292 3.506156 29.617356 68.053349
2004-05-06 11:06:42 51°13.598 2°56.096 12.541736 3.510054 29.656345 68.053349
2004-05-06 11:07:42 51°13.597 2°56.096 12.536727 3.514057 29.693261 68.053349
2004-05-06 11:08:40 51°13.598 2°56.096 12.542684 3.509 29.645855 68.087059
2004-05-06 11:09:42 51°13.597 2°56.096 12.553107 3.505102 29.605032 68.087059
2004-05-06 11:10:42 51°13.598 2°56.098 12.56204 3.488772 29.439281 68.053349
2004-05-06 11:11:40 51°13.597 2°56.097 12.564521 3.494988 29.498075 68.01964
2004-05-06 11:12:42 51°13.597 2°56.098 12.559062 3.500888 29.552705 68.053349
2004-05-06 11:13:40 51°13.597 2°56.097 12.562401 3.503206 29.577469 68.053349
2004-05-06 11:14:42 51°13.597 2°56.096 12.554867 3.499729 29.54552 68.053349
2004-05-06 11:15:40 51°13.597 2°56.096 12.551618 3.505313 29.59843 68.01964
2004-05-06 11:16:42 51°13.597 2°56.098 12.547828 3.50447 29.595434 68.053349
2004-05-06 11:17:42 51°13.597 2°56.097 12.542097 3.50742 29.626138 68.01964
2004-05-06 11:18:42 51°13.598 2°56.099 12.54318 3.511108 29.666835 68.053349
2004-05-06 11:19:42 51°13.598 2°56.098 12.565964 3.48814 29.437018 68.087059
2004-05-06 11:20:42 51°13.598 2°56.099 12.565739 3.485612 29.407878 68.087059
2004-05-06 11:21:40 51°13.597 2°56.099 12.568671 3.486876 29.418491 68.053349
2004-05-06 11:22:42 51°13.597 2°56.1 12.572505 3.486455 29.412723 68.087059
2004-05-06 11:23:41 51°13.597 2°56.1 12.621562 3.48814 29.424844 68.053349
2004-05-06 11:24:40 51°13.598 2°56.099 12.625618 3.434939 28.892417 68.120768
2004-05-06 11:25:42 51°13.598 2°56.099 12.613133 3.44284 28.968484 68.154477
2004-05-06 11:26:42 51°13.598 2°56.098 12.614305 3.446738 29.005441 68.087059
2004-05-06 11:27:42 51°13.599 2°56.097 12.602629 3.452953 29.074239 68.087059
2004-05-06 11:28:42 51°13.598 2°56.098 12.606055 3.451373 29.055887 68.120768
2004-05-06 11:29:42 51°13.597 2°56.096 12.597895 3.456114 29.102541 68.087059
2004-05-06 11:30:42 51°13.619 2°56.017 12.639408 3.433359 28.865768 68.087059
2004-05-06 11:31:43 51°13.657 2°55.9 12.654051 3.419875 28.706987 68.087059
2004-05-06 11:32:42 51°13.679 2°55.773 12.624176 3.454744 29.069342 68.01964
2004-05-06 11:33:41 51°13.687 2°55.749 12.699266 3.431252 28.835426 68.01964
2004-05-06 11:34:42 51°13.746 2°55.726 12.816304 3.346035 27.973378 68.01964
2004-05-06 11:35:42 51°13.83 2°55.638 12.79383 3.281787 27.319435 68.01964
2004-05-06 11:36:42 51°13.951 2°55.554 12.748364 3.397964 28.445836 68.053349
2004-05-06 11:37:42 51°14.073 2°55.465 12.940584 3.384164 28.247075 68.053349
2004-05-06 11:38:42 51°14.211 2°55.348 12.890011 3.392064 28.307367 68.053349
2004-05-06 11:39:42 51°14.333 2°55.139 12.99448 3.432092 28.624968 68.01964
2004-05-06 11:40:42 51°14.461 2°54.905 12.604612 3.663359 30.866834 68.053349
2004-05-06 11:41:42 51°14.577 2°54.629 12.497498 3.844109 32.817612 68.087059
2004-05-06 11:42:42 51°14.676 2°54.339 12.664592 3.868562 32.95531 68.154477
2004-05-06 11:43:42 51°14.688 2°54.033 12.524676 3.863188 33.019667 68.188187
2004-05-06 11:44:42 51°14.519 2°53.888 12.337316 3.873941 33.206183 68.424153
2004-05-06 11:45:42 51°14.336 2°53.76 12.263855 3.871729 33.286916 68.221896
2004-05-06 11:46:42 51°14.176 2°53.584 12.657475 3.868777 33.195547 66.974648
2004-05-06 11:47:42 51°14.048 2°53.353 12.725012 3.909777 33.257498 59.760836
2004-05-06 11:48:41 51°13.921 2°53.127 12.66806 3.919581 33.402811 58.277623
2004-05-06 11:49:41 51°13.817 2°52.871 12.550806 3.915154 33.420103 62.255332
2004-05-06 11:50:42 51°13.717 2°52.603 12.55234 3.913258 33.449807 63.839674
2004-05-06 11:51:42 51°13.608 2°52.35 12.476903 3.918529 33.546632 56.659571
2004-05-06 11:52:41 51°13.502 2°52.101 12.551483 3.914312 33.486228 60.468734
2004-05-06 11:53:42 51°13.392 2°51.846 12.50847 3.914944 33.486009 68.457862
2004-05-06 11:54:42 51°13.284 2°51.597 12.520975 3.913786 33.517359 65.120631
2004-05-06 11:55:42 51°13.176 2°51.349 12.496369 3.913048 33.50405 65.76111
2004-05-06 11:56:41 51°13.07 2°51.106 12.442294 3.914208 33.549957 65.929657
2004-05-06 11:57:42 51°12.96 2°50.857 12.412459 3.913365 33.559341 63.940802
2004-05-06 11:58:42 51°12.852 2°50.612 12.369175 3.915473 33.617269 68.457862
2004-05-06 11:59:42 51°12.744 2°50.367 12.405089 3.916527 33.62596 68.188187
2004-05-06 12:00:42 51°12.636 2°50.121 12.390979 3.922747 33.681299 68.154477
2004-05-06 12:01:41 51°12.527 2°49.879 12.316762 3.92844 33.773093 68.087059
2004-05-06 12:02:40 51°12.423 2°49.634 12.29824 3.929811 33.825032 68.120768
2004-05-06 12:03:42 51°12.325 2°49.365 12.193306 3.929706 33.886299 68.154477
2004-05-06 12:04:41 51°12.231 2°49.11 12.211585 3.929496 33.931139 68.154477
2004-05-06 12:05:42 51°12.126 2°48.854 12.216302 3.932869 33.938023 61.412597
2004-05-06 12:06:40 51°12.026 2°48.609 12.131856 3.93308 33.970644 68.154477
2004-05-06 12:07:42 51°11.923 2°48.341 12.101654 3.929392 34.003543 68.120768
2004-05-06 12:08:42 51°11.813 2°48.089 12.151105 3.929392 34.003543 68.120768
2004-05-06 12:09:41 51°11.709 2°47.856 12.198977 3.933924 33.982331 68.053349
2004-05-06 12:10:40 51°11.65 2°47.766 12.222832 3.938035 34.002699 62.592426
2004-05-06 12:11:42 51°11.652 2°47.779 12.244366 3.942989 34.024047 39.973418
2004-05-06 12:12:42 51°11.656 2°47.799 12.258054 3.945624 34.032318 39.83858
2004-05-06 12:13:40 51°11.662 2°47.822 12.268386 3.947311 34.040713 37.0407
2004-05-06 12:14:42 51°11.671 2°47.85 12.277267 3.948892 34.048092 37.714888
2004-05-06 12:15:42 51°11.681 2°47.878 12.287868 3.951211 34.059717 36.872153
2004-05-06 12:16:42 51°11.693 2°47.909 12.293756 3.952476 34.067609 37.883435
2004-05-06 12:17:40 51°11.705 2°47.939 12.303449 3.953846 34.072241 35.928289
2004-05-06 12:18:39 51°11.717 2°47.973 12.296655 3.954584 34.078624 38.15311
2004-05-06 12:19:42 51°11.731 2°48.003 12.294889 3.955111 34.080843 37.546341
2004-05-06 12:20:42 51°11.74 2°48.018 12.296111 3.95469 34.08391 40.310512
2004-05-06 12:21:42 51°11.741 2°48.026 12.286282 3.954268 34.085555 44.827571
2004-05-06 12:22:42 51°11.738 2°48.025 12.280574 3.954163 34.085966 44.052255
2004-05-06 12:23:41 51°11.748 2°47.994 12.263673 3.954268 34.094107 42.164529
2004-05-06 12:24:42 51°11.787 2°47.972 12.254655 3.953425 34.104535 37.377794
2004-05-06 12:25:42 51°11.847 2°47.991 12.226504 3.951211 34.094644 38.759879
2004-05-06 12:26:40 51°11.905 2°48.041 12.199113 3.947311 34.080638 42.299366
2004-05-06 12:27:40 51°11.954 2°48.114 12.164177 3.942357 34.062174 55.580871
2004-05-06 12:28:42 51°11.994 2°48.201 12.128768 3.938246 34.055397 66.199332
2004-05-06 12:29:42 51°12.027 2°48.284 12.112692 3.93656 34.060576 62.659845
2004-05-06 12:30:42 51°12.058 2°48.368 12.104561 3.935822 34.062755 53.92911
2004-05-06 12:31:42 51°12.087 2°48.452 12.086843 3.935717 34.077489 47.052392
2004-05-06 12:32:42 51°12.113 2°48.538 12.072756 3.934979 34.083976 43.512905
2004-05-06 12:33:42 51°12.139 2°48.624 12.075801 3.934558 34.087071 45.805144
2004-05-06 12:34:42 51°12.164 2°48.71 12.076892 3.934874 34.088693 47.119811
2004-05-06 12:35:42 51°12.188 2°48.794 12.086752 3.934768 34.084806 47.15352
2004-05-06 12:36:42 51°12.211 2°48.876 12.10129 3.935084 34.075678 48.636734
2004-05-06 12:37:41 51°12.235 2°48.956 12.099519 3.935506 34.071156 50.086238
2004-05-06 12:38:42 51°12.262 2°49.037 12.106242 3.934979 34.066066 53.625725
2004-05-06 12:39:42 51°12.287 2°49.115 12.105742 3.934873 34.063616 58.715845
2004-05-06 12:40:42 51°12.313 2°49.193 12.112464 3.934557 34.056983 60.13164
2004-05-06 12:41:42 51°12.337 2°49.271 12.11251 3.934452 34.049525 63.064358
2004-05-06 12:42:42 51°12.363 2°49.347 12.114281 3.933714 34.043117 67.513999
2004-05-06 12:43:40 51°12.387 2°49.421 12.119913 3.933503 34.037506 68.188187
2004-05-06 12:44:41 51°12.412 2°49.499 12.127587 3.933925 34.038716 68.356734
2004-05-06 12:45:42 51°12.437 2°49.576 12.134035 3.934135 34.032887 68.188187
2004-05-06 12:46:42 51°12.463 2°49.65 12.138167 3.934451 34.028793 68.188187
2004-05-06 12:47:42 51°12.488 2°49.724 12.143433 3.934135 34.024313 68.188187
2004-05-06 12:48:42 51°12.514 2°49.798 12.159093 3.934451 34.01808 68.188187
2004-05-06 12:49:42 51°12.541 2°49.871 12.17289 3.934662 34.008693 68.154477
2004-05-06 12:50:42 51°12.568 2°49.943 12.174977 3.935505 34.005409 68.120768
2004-05-06 12:51:42 51°12.596 2°50.013 12.178879 3.935505 34.004696 68.154477
2004-05-06 12:52:42 51°12.625 2°50.083 12.178471 3.93561 34.001434 68.120768
2004-05-06 12:53:42 51°12.654 2°50.154 12.176066 3.935083 33.999919 68.053349
2004-05-06 12:54:41 51°12.682 2°50.224 12.179696 3.934767 33.996871 68.053349
2004-05-06 12:55:42 51°12.71 2°50.296 12.185367 3.93561 33.99787 68.087059
2004-05-06 12:56:42 51°12.739 2°50.366 12.183689 3.935294 33.998386 68.087059
2004-05-06 12:57:40 51°12.768 2°50.436 12.177654 3.935505 33.997567 68.120768
2004-05-06 12:58:40 51°12.798 2°50.505 12.178743 3.935189 33.996658 68.087059
2004-05-06 12:59:42 51°12.829 2°50.575 12.179469 3.935294 34.000525 68.087059
2004-05-06 13:00:42 51°12.86 2°50.643 12.166219 3.935505 34.00327 68.154477
2004-05-06 13:01:41 51°12.891 2°50.708 12.157596 3.934873 34.008585 68.154477
2004-05-06 13:02:40 51°12.92 2°50.775 12.164993 3.934873 34.010726 68.188187
2004-05-06 13:03:41 51°12.944 2°50.849 12.152149 3.935084 34.019896 68.390443
2004-05-06 13:04:42 51°12.965 2°50.923 12.145113 3.936032 34.031188 64.210477
2004-05-06 13:05:42 51°12.994 2°51.014 12.148971 3.9354 34.030801 64.985794
2004-05-06 13:06:42 51°13.054 2°51.124 12.157823 3.935084 34.021324 66.974648
2004-05-06 13:07:42 51°13.107 2°51.205 12.160773 3.933924 34.006573 68.087059
2004-05-06 13:08:42 51°13.152 2°51.276 12.155553 3.935084 34.018468 62.828392
2004-05-06 13:09:42 51°13.192 2°51.343 12.149107 3.935716 34.029566 53.726853
2004-05-06 13:10:39 51°13.262 2°51.459 12.132582 3.936032 34.034759 47.861418
2004-05-06 13:11:42 51°13.41 2°51.661 12.087343 3.937192 34.074553 39.366648
2004-05-06 13:12:42 51°13.506 2°51.757 12.062439 3.93772 34.120506 31.41123
2004-05-06 13:13:42 51°13.576 2°51.8 12.060803 3.939723 34.148488 25.882888
2004-05-06 13:14:42 51°13.636 2°51.831 12.065621 3.941199 34.161321 23.691777
2004-05-06 13:15:42 51°13.694 2°51.898 12.04621 3.943413 34.187045 22.275982
2004-05-06 13:16:42 51°13.75 2°51.993 12.0423 3.943518 34.200302 20.354546
2004-05-06 13:17:40 51°13.801 2°52.098 12.067939 3.940988 34.16935 30.737042
2004-05-06 13:18:42 51°13.855 2°52.217 12.078346 3.942253 34.154984 20.624221
2004-05-06 13:19:42 51°13.902 2°52.341 12.09116 3.942253 34.143495 23.017589
2004-05-06 13:20:42 51°13.939 2°52.472 12.103789 3.942464 34.137637 24.804187
2004-05-06 13:21:42 51°13.974 2°52.604 12.134625 3.943517 34.125586 21.736631
2004-05-06 13:22:41 51°14.015 2°52.73 12.161227 3.945309 34.121388 17.455537
2004-05-06 13:23:42 51°14.063 2°52.854 12.165402 3.943517 34.097658 22.545657
2004-05-06 13:24:42 51°14.11 2°52.977 12.176066 3.943411 34.082338 23.253554
2004-05-06 13:25:42 51°14.156 2°53.102 12.199929 3.942463 34.071762 24.433383
2004-05-06 13:26:42 51°14.196 2°53.231 12.190993 3.943833 34.067113 24.837896
2004-05-06 13:27:40 51°14.236 2°53.356 12.210724 3.943727 34.066812 22.882751
2004-05-06 13:28:41 51°14.279 2°53.486 12.228273 3.944149 34.066591 23.961452
2004-05-06 13:29:42 51°14.324 2°53.615 12.206415 3.944676 34.057395 25.74805
2004-05-06 13:30:42 51°14.37 2°53.75 12.215984 3.942884 34.046554 30.669623
2004-05-06 13:31:42 51°14.441 2°53.982 12.243868 3.941197 34.01463 38.355366
2004-05-06 13:32:42 51°14.477 2°54.297 12.316128 3.942145 33.973971 45.805144
2004-05-06 13:33:42 51°14.463 2°54.649 12.344331 3.937612 33.917637 67.109486
2004-05-06 13:34:41 51°14.401 2°54.978 12.399979 3.932551 33.799122 68.01964
2004-05-06 13:35:42 51°14.282 2°55.225 12.586667 3.931812 33.697243 68.053349
2004-05-06 13:36:41 51°14.185 2°55.375 12.730187 3.768431 31.95801 68.01964
2004-05-06 13:37:42 51°14.076 2°55.474 12.725282 3.635752 30.697348 68.053349